Orlando, FL (32810)

3:05 PM EDT on September 02, 2015 (GMT -0400)
lockhart | | Change Station
CLOSE
Current Station
Personal Weather Station
Location: Orlando, FL
Elevation: 105 ft
Nearby Weather Stations

Elev 105 ft 28.62 °N, 81.44 °W | Updated 2 seconds ago

Partly Cloudy
Partly Cloudy
96.1 °F
Feels Like 113 °F
N
1.6
Wind Variable Wind from West
Gusts 6.9 mph

Today
High -- | Low -- °F
--% Chance of Precip.
Yesterday
High -- | Low -- °F
Precip. -- in
7:04 AM 7:46 PM
Waning Gibbous, 78% visible
Pressure 30.03 in
Visibility 10.0 miles
Clouds Few 4400 ft
Scattered Clouds 5000 ft
Scattered Clouds 7000 ft
Heat Index 113 °F
Dew Point 78 °F
Humidity 56%
Rainfall 0.00 in
Snow Depth Not available.
UV 10 out of 12
Pollen 5.50 out of 12
Air Quality Not available.
Flu Activity Not available.
METAR KORL 021853Z 25008KT 10SM FEW044 SCT050 SCT070 33/24 A3003 RMK AO2 SLP169 T03330244
Pressure 30.03 in
Visibility 10.0 miles
Clouds Few 4400 ft
Scattered Clouds 5000 ft
Scattered Clouds 7000 ft
Heat Index 113 °F
Dew Point 78 °F
Humidity 56%
Rainfall 0.00 in
Snow Depth Not available.
UV 10 out of 12
Pollen 5.50 out of 12
Air Quality Not available.
Flu Activity Not available.
METAR KORL 021853Z 25008KT 10SM FEW044 SCT050 SCT070 33/24 A3003 RMK AO2 SLP169 T03330244
Nowcast | as of 11:07 am EDT on September 2, 2015

A ridge aloft and decreased moisture levels in the mid levels of the atmosphere will reduce shower and thunderstorm coverage through mid afternoon. Isolated showers and a few lightning storms may develop inland from the Treasure Coast by early to mid afternoon along the East Coast sea breeze and push slowly inland. Other showers and lightning storms may develop along the West Coast sea breeze and move into Lake County from the west between 2 and 3 PM. Additional details...including graphics are available online at: http://www.Srh.NOAA.Gov/mlb/blog.Php

×

10-Day Weather Forecast

×

Almanac

Astronomy

Sep. 02, 2015 Rise Set
Actual Time
Civil Twilight
Nautical Twilight
Astronomical Twilight
Moon
Length of Visible Light
Length of Day
Tomorrow will be .
, % of the Moon is Illuminated

Today's Extremes

State Highs State Lows

Community

WunderPhotos

Upload Photos

1,851,799 photos uploaded!

WunderBlogs® & News

Nearby

Air Quality

  Air Quality AQ Index Pollutant
Not available.

Snow Depth

Station Depth Elevation

Earthquake Activity

City Distance Mag. Time & Date
Minimum magnitude displayed is 2.5.

Coastal Water Temperatures

Place Temperature

Stations

Nearby Weather Stations

Station Location Temp. Windchill Dew Point Humidity Wind Precip. Elev Updated Type